Aviation Digital Data Service (ADDS)

Output produced by METARs form (0640 UTC 27 March 2017)
found at http://www.aviationweather.gov/adds/metars/
 
DIBK 270500Z 22006KT CAVOK 24/23 Q1012 NOSIG
TAF DIBK 270500Z 2706/2806 24005KT 8000 SCT013 
     PROB30 
     TEMPO 2706/2709 4000 BR 
     PROB30 
     TEMPO 2714/2718 TS BKN013 FEW030CB
       
DIAP 270630Z 25005KT 9999 FEW012 27/26 Q1010 NOSIG
TAF DIAP 270500Z 2706/2812 22006KT 9999 SCT012 
     PROB30 
     TEMPO 2714/2719 BKN012 FEW020CB 
     BECMG 2720/2722 BKN012 
     TEMPO 2808/2812 SCT012
       
TAF DIYO 270500Z 2706/2806 23005KT 8000 SCT013 
     TEMPO 2715/2720 TS BKN013 FEW025CB